Akkuduk, Kazakhstan
Current Conditions -  °F | °C
As of 5:00 PM on Thursday 27 Nov 2014 (Local Time) from UATE Reporting Station
Clear Clear  
Wind Chill: 22°   Ceiling: Unl
Heat Index: 32°   Visibility: 6mi
Dew Point: 10°   Wind: 13mph
Humidity: 41%   Direction: 90°E
Pressure: 30.33"   Gusts: NA
Location:  42.97°N, 54.12°E
Report Text: UATE 271300Z 09006MPS CAVOK M00/M12 Q1027 R12/0///70 NOSIG RMKQFE768/1024
Loading
Personal Weather Stations






























Interactive Weather Map New forecast layout! Learn more

10-Day Weather Forecast

Advertisements
Track Severe Weather on mobile